sensor_id;sensor_type;location;lat;lon;timestamp;P1;durP1;ratioP1;P2;durP2;ratioP2
44670;SDS011;48397;53.016;-2.260;2022-09-09T00:04:35;65.25;;;17.63;;
44670;SDS011;48397;53.016;-2.260;2022-09-09T00:18:32;64.65;;;17.67;;
44670;SDS011;48397;53.016;-2.260;2022-09-09T00:21:33;74.22;;;21.23;;
44670;SDS011;48397;53.016;-2.260;2022-09-09T00:24:47;71.32;;;20.42;;
44670;SDS011;48397;53.016;-2.260;2022-09-09T00:27:05;46.63;;;15.15;;
44670;SDS011;48397;53.016;-2.260;2022-09-09T00:29:41;47.67;;;14.02;;
44670;SDS011;48397;53.016;-2.260;2022-09-09T00:32:17;49.10;;;15.15;;
44670;SDS011;48397;53.016;-2.260;2022-09-09T00:34:50;53.33;;;15.55;;
44670;SDS011;48397;53.016;-2.260;2022-09-09T00:37:21;43.47;;;14.98;;
44670;SDS011;48397;53.016;-2.260;2022-09-09T00:39:53;51.38;;;16.77;;
44670;SDS011;48397;53.016;-2.260;2022-09-09T00:48:01;60.75;;;16.70;;
44670;SDS011;48397;53.016;-2.260;2022-09-09T00:58:42;65.13;;;17.85;;
44670;SDS011;48397;53.016;-2.260;2022-09-09T01:01:19;61.58;;;19.73;;
44670;SDS011;48397;53.016;-2.260;2022-09-09T01:08:47;75.15;;;23.00;;
44670;SDS011;48397;53.016;-2.260;2022-09-09T01:11:25;72.85;;;21.27;;
44670;SDS011;48397;53.016;-2.260;2022-09-09T01:14:05;57.17;;;18.65;;
44670;SDS011;48397;53.016;-2.260;2022-09-09T01:16:59;42.03;;;14.02;;
44670;SDS011;48397;53.016;-2.260;2022-09-09T01:22:26;42.67;;;13.85;;
44670;SDS011;48397;53.016;-2.260;2022-09-09T01:28:25;45.22;;;14.50;;
44670;SDS011;48397;53.016;-2.260;2022-09-09T01:31:00;58.40;;;17.85;;
44670;SDS011;48397;53.016;-2.260;2022-09-09T01:33:38;49.75;;;16.85;;
44670;SDS011;48397;53.016;-2.260;2022-09-09T01:38:45;49.33;;;15.82;;
44670;SDS011;48397;53.016;-2.260;2022-09-09T01:41:13;63.10;;;18.52;;
44670;SDS011;48397;53.016;-2.260;2022-09-09T01:43:48;74.82;;;20.95;;
44670;SDS011;48397;53.016;-2.260;2022-09-09T01:46:16;76.75;;;21.00;;
44670;SDS011;48397;53.016;-2.260;2022-09-09T01:48:46;68.07;;;19.05;;
44670;SDS011;48397;53.016;-2.260;2022-09-09T01:51:14;83.32;;;23.20;;
44670;SDS011;48397;53.016;-2.260;2022-09-09T01:53:42;78.03;;;23.02;;
44670;SDS011;48397;53.016;-2.260;2022-09-09T02:04:39;65.50;;;19.27;;
44670;SDS011;48397;53.016;-2.260;2022-09-09T02:09:52;63.53;;;19.67;;
44670;SDS011;48397;53.016;-2.260;2022-09-09T02:12:31;66.72;;;20.75;;
44670;SDS011;48397;53.016;-2.260;2022-09-09T02:15:07;64.38;;;20.02;;
44670;SDS011;48397;53.016;-2.260;2022-09-09T02:17:48;64.70;;;20.42;;
44670;SDS011;48397;53.016;-2.260;2022-09-09T02:20:19;60.50;;;17.77;;
44670;SDS011;48397;53.016;-2.260;2022-09-09T02:22:55;62.50;;;18.60;;
44670;SDS011;48397;53.016;-2.260;2022-09-09T02:25:25;56.00;;;17.83;;
44670;SDS011;48397;53.016;-2.260;2022-09-09T02:28:05;57.08;;;18.83;;
44670;SDS011;48397;53.016;-2.260;2022-09-09T02:30:37;64.85;;;19.23;;
44670;SDS011;48397;53.016;-2.260;2022-09-09T02:33:09;61.33;;;19.67;;
44670;SDS011;48397;53.016;-2.260;2022-09-09T02:35:46;63.25;;;19.52;;
44670;SDS011;48397;53.016;-2.260;2022-09-09T02:38:18;64.78;;;19.05;;
44670;SDS011;48397;53.016;-2.260;2022-09-09T02:40:58;54.75;;;17.02;;
44670;SDS011;48397;53.016;-2.260;2022-09-09T02:43:30;54.13;;;19.33;;
44670;SDS011;48397;53.016;-2.260;2022-09-09T02:51:51;51.10;;;18.85;;
44670;SDS011;48397;53.016;-2.260;2022-09-09T02:54:35;57.08;;;17.40;;
44670;SDS011;48397;53.016;-2.260;2022-09-09T02:59:51;45.75;;;16.75;;
44670;SDS011;48397;53.016;-2.260;2022-09-09T03:04:53;51.50;;;15.07;;
44670;SDS011;48397;53.016;-2.260;2022-09-09T03:07:21;52.55;;;16.05;;
44670;SDS011;48397;53.016;-2.260;2022-09-09T03:09:51;50.28;;;16.77;;
44670;SDS011;48397;53.016;-2.260;2022-09-09T03:12:25;54.05;;;17.33;;
44670;SDS011;48397;53.016;-2.260;2022-09-09T03:14:53;45.65;;;16.40;;
44670;SDS011;48397;53.016;-2.260;2022-09-09T03:17:20;49.70;;;16.67;;
44670;SDS011;48397;53.016;-2.260;2022-09-09T03:19:53;51.47;;;16.85;;
44670;SDS011;48397;53.016;-2.260;2022-09-09T03:22:22;48.88;;;17.05;;
44670;SDS011;48397;53.016;-2.260;2022-09-09T03:24:49;47.15;;;16.10;;
44670;SDS011;48397;53.016;-2.260;2022-09-09T03:29:46;45.33;;;17.13;;
44670;SDS011;48397;53.016;-2.260;2022-09-09T03:32:21;51.95;;;16.75;;
44670;SDS011;48397;53.016;-2.260;2022-09-09T03:34:49;61.15;;;19.48;;
44670;SDS011;48397;53.016;-2.260;2022-09-09T03:37:18;56.28;;;20.58;;
44670;SDS011;48397;53.016;-2.260;2022-09-09T03:39:49;55.90;;;18.83;;
44670;SDS011;48397;53.016;-2.260;2022-09-09T03:42:18;53.53;;;16.73;;
44670;SDS011;48397;53.016;-2.260;2022-09-09T03:44:49;44.28;;;16.17;;
44670;SDS011;48397;53.016;-2.260;2022-09-09T03:47:21;53.63;;;17.13;;
44670;SDS011;48397;53.016;-2.260;2022-09-09T03:49:53;56.42;;;18.60;;
44670;SDS011;48397;53.016;-2.260;2022-09-09T03:52:20;54.47;;;18.38;;
44670;SDS011;48397;53.016;-2.260;2022-09-09T03:54:53;53.25;;;19.02;;
44670;SDS011;48397;53.016;-2.260;2022-09-09T03:57:21;47.17;;;18.42;;
44670;SDS011;48397;53.016;-2.260;2022-09-09T03:59:50;56.67;;;19.73;;
44670;SDS011;48397;53.016;-2.260;2022-09-09T04:02:18;53.83;;;17.95;;
44670;SDS011;48397;53.016;-2.260;2022-09-09T04:04:46;49.35;;;17.25;;
44670;SDS011;48397;53.016;-2.260;2022-09-09T04:07:15;46.53;;;15.60;;
44670;SDS011;48397;53.016;-2.260;2022-09-09T04:09:43;51.88;;;17.88;;
44670;SDS011;48397;53.016;-2.260;2022-09-09T04:12:11;52.17;;;18.40;;
44670;SDS011;48397;53.016;-2.260;2022-09-09T04:14:40;55.65;;;18.67;;
44670;SDS011;48397;53.016;-2.260;2022-09-09T04:17:08;50.63;;;17.40;;
44670;SDS011;48397;53.016;-2.260;2022-09-09T04:22:04;55.05;;;17.80;;
44670;SDS011;48397;53.016;-2.260;2022-09-09T04:27:00;46.50;;;17.15;;
44670;SDS011;48397;53.016;-2.260;2022-09-09T04:29:29;50.70;;;17.63;;
44670;SDS011;48397;53.016;-2.260;2022-09-09T04:31:57;51.05;;;18.55;;
44670;SDS011;48397;53.016;-2.260;2022-09-09T04:36:54;45.83;;;15.98;;
44670;SDS011;48397;53.016;-2.260;2022-09-09T04:39:22;45.55;;;16.83;;
44670;SDS011;48397;53.016;-2.260;2022-09-09T04:41:51;54.75;;;17.13;;
44670;SDS011;48397;53.016;-2.260;2022-09-09T04:44:21;50.35;;;15.68;;
44670;SDS011;48397;53.016;-2.260;2022-09-09T04:46:49;54.72;;;16.80;;
44670;SDS011;48397;53.016;-2.260;2022-09-09T04:49:17;46.28;;;16.48;;
44670;SDS011;48397;53.016;-2.260;2022-09-09T04:51:45;49.88;;;16.98;;
44670;SDS011;48397;53.016;-2.260;2022-09-09T04:54:13;53.13;;;17.58;;
44670;SDS011;48397;53.016;-2.260;2022-09-09T04:56:43;54.70;;;17.40;;
44670;SDS011;48397;53.016;-2.260;2022-09-09T04:59:11;55.55;;;18.13;;
44670;SDS011;48397;53.016;-2.260;2022-09-09T05:01:44;47.72;;;18.23;;
44670;SDS011;48397;53.016;-2.260;2022-09-09T05:04:13;57.70;;;17.52;;
44670;SDS011;48397;53.016;-2.260;2022-09-09T05:06:42;50.42;;;17.77;;
44670;SDS011;48397;53.016;-2.260;2022-09-09T05:09:11;55.50;;;18.17;;
44670;SDS011;48397;53.016;-2.260;2022-09-09T05:11:39;58.72;;;18.83;;
44670;SDS011;48397;53.016;-2.260;2022-09-09T05:14:30;57.58;;;20.35;;
44670;SDS011;48397;53.016;-2.260;2022-09-09T05:17:00;55.47;;;19.00;;
44670;SDS011;48397;53.016;-2.260;2022-09-09T05:19:28;61.47;;;18.60;;
44670;SDS011;48397;53.016;-2.260;2022-09-09T05:21:56;60.25;;;19.55;;
44670;SDS011;48397;53.016;-2.260;2022-09-09T05:24:31;59.92;;;19.25;;
44670;SDS011;48397;53.016;-2.260;2022-09-09T05:27:01;54.72;;;19.98;;
44670;SDS011;48397;53.016;-2.260;2022-09-09T05:29:30;59.10;;;20.08;;
44670;SDS011;48397;53.016;-2.260;2022-09-09T05:32:02;56.15;;;18.15;;
44670;SDS011;48397;53.016;-2.260;2022-09-09T05:34:31;50.20;;;18.35;;
44670;SDS011;48397;53.016;-2.260;2022-09-09T05:36:59;60.40;;;19.17;;
44670;SDS011;48397;53.016;-2.260;2022-09-09T05:39:27;64.05;;;20.60;;
44670;SDS011;48397;53.016;-2.260;2022-09-09T05:41:56;56.67;;;18.27;;
44670;SDS011;48397;53.016;-2.260;2022-09-09T05:46:54;54.78;;;17.55;;
44670;SDS011;48397;53.016;-2.260;2022-09-09T05:49:22;55.30;;;20.05;;
44670;SDS011;48397;53.016;-2.260;2022-09-09T05:51:50;53.75;;;17.88;;
44670;SDS011;48397;53.016;-2.260;2022-09-09T05:54:20;52.33;;;16.98;;
44670;SDS011;48397;53.016;-2.260;2022-09-09T05:56:50;50.50;;;18.33;;
44670;SDS011;48397;53.016;-2.260;2022-09-09T05:59:19;59.95;;;20.00;;
44670;SDS011;48397;53.016;-2.260;2022-09-09T06:01:50;59.13;;;17.48;;
44670;SDS011;48397;53.016;-2.260;2022-09-09T06:04:26;59.40;;;19.10;;
44670;SDS011;48397;53.016;-2.260;2022-09-09T06:06:53;68.30;;;18.80;;
44670;SDS011;48397;53.016;-2.260;2022-09-09T06:09:22;59.42;;;19.58;;
44670;SDS011;48397;53.016;-2.260;2022-09-09T06:11:50;61.55;;;19.05;;
44670;SDS011;48397;53.016;-2.260;2022-09-09T06:14:20;58.63;;;19.92;;
44670;SDS011;48397;53.016;-2.260;2022-09-09T06:16:51;63.05;;;19.92;;
44670;SDS011;48397;53.016;-2.260;2022-09-09T06:19:22;57.88;;;18.58;;
44670;SDS011;48397;53.016;-2.260;2022-09-09T06:21:57;63.10;;;19.27;;
44670;SDS011;48397;53.016;-2.260;2022-09-09T06:24:27;63.70;;;17.75;;
44670;SDS011;48397;53.016;-2.260;2022-09-09T06:26:58;63.47;;;20.25;;
44670;SDS011;48397;53.016;-2.260;2022-09-09T06:29:31;67.78;;;21.30;;
44670;SDS011;48397;53.016;-2.260;2022-09-09T06:32:01;56.67;;;17.60;;
44670;SDS011;48397;53.016;-2.260;2022-09-09T06:34:30;56.38;;;17.20;;
44670;SDS011;48397;53.016;-2.260;2022-09-09T06:36:59;63.28;;;18.58;;
44670;SDS011;48397;53.016;-2.260;2022-09-09T06:39:34;63.67;;;21.08;;
44670;SDS011;48397;53.016;-2.260;2022-09-09T06:42:03;55.05;;;17.27;;
44670;SDS011;48397;53.016;-2.260;2022-09-09T06:44:49;70.43;;;20.90;;
44670;SDS011;48397;53.016;-2.260;2022-09-09T06:47:37;55.90;;;16.98;;
44670;SDS011;48397;53.016;-2.260;2022-09-09T06:50:04;59.80;;;21.20;;
44670;SDS011;48397;53.016;-2.260;2022-09-09T06:52:35;59.55;;;18.52;;
44670;SDS011;48397;53.016;-2.260;2022-09-09T06:55:03;63.05;;;21.08;;
44670;SDS011;48397;53.016;-2.260;2022-09-09T06:57:33;67.22;;;19.77;;
44670;SDS011;48397;53.016;-2.260;2022-09-09T07:00:12;64.95;;;19.17;;
44670;SDS011;48397;53.016;-2.260;2022-09-09T07:02:41;63.03;;;19.25;;
44670;SDS011;48397;53.016;-2.260;2022-09-09T07:05:10;59.08;;;18.60;;
44670;SDS011;48397;53.016;-2.260;2022-09-09T07:07:42;62.15;;;18.88;;
44670;SDS011;48397;53.016;-2.260;2022-09-09T07:10:11;62.78;;;19.42;;
44670;SDS011;48397;53.016;-2.260;2022-09-09T07:12:39;56.47;;;18.27;;
44670;SDS011;48397;53.016;-2.260;2022-09-09T07:15:10;69.18;;;20.13;;
44670;SDS011;48397;53.016;-2.260;2022-09-09T07:17:41;62.28;;;18.88;;
44670;SDS011;48397;53.016;-2.260;2022-09-09T07:20:09;60.60;;;16.67;;
44670;SDS011;48397;53.016;-2.260;2022-09-09T07:22:37;53.97;;;17.75;;
44670;SDS011;48397;53.016;-2.260;2022-09-09T07:27:33;55.53;;;16.95;;
44670;SDS011;48397;53.016;-2.260;2022-09-09T07:30:01;58.70;;;18.95;;
44670;SDS011;48397;53.016;-2.260;2022-09-09T07:32:31;55.38;;;18.30;;
44670;SDS011;48397;53.016;-2.260;2022-09-09T07:35:00;61.60;;;20.42;;
44670;SDS011;48397;53.016;-2.260;2022-09-09T07:39:56;58.92;;;20.55;;
44670;SDS011;48397;53.016;-2.260;2022-09-09T07:42:26;56.25;;;18.80;;
44670;SDS011;48397;53.016;-2.260;2022-09-09T07:44:54;62.65;;;18.88;;
44670;SDS011;48397;53.016;-2.260;2022-09-09T07:47:23;58.65;;;21.63;;
44670;SDS011;48397;53.016;-2.260;2022-09-09T07:49:51;61.97;;;20.52;;
44670;SDS011;48397;53.016;-2.260;2022-09-09T07:52:24;68.15;;;21.23;;
44670;SDS011;48397;53.016;-2.260;2022-09-09T07:54:56;59.95;;;17.67;;
44670;SDS011;48397;53.016;-2.260;2022-09-09T07:57:24;57.65;;;19.10;;
44670;SDS011;48397;53.016;-2.260;2022-09-09T07:59:53;64.65;;;21.20;;
44670;SDS011;48397;53.016;-2.260;2022-09-09T08:02:21;68.28;;;24.48;;
44670;SDS011;48397;53.016;-2.260;2022-09-09T08:04:50;86.28;;;25.77;;
44670;SDS011;48397;53.016;-2.260;2022-09-09T08:07:19;75.88;;;22.30;;
44670;SDS011;48397;53.016;-2.260;2022-09-09T08:09:53;69.75;;;23.08;;
44670;SDS011;48397;53.016;-2.260;2022-09-09T08:12:27;75.35;;;26.27;;
44670;SDS011;48397;53.016;-2.260;2022-09-09T08:14:56;55.20;;;18.02;;
44670;SDS011;48397;53.016;-2.260;2022-09-09T08:17:29;66.75;;;23.05;;
44670;SDS011;48397;53.016;-2.260;2022-09-09T08:19:59;63.25;;;19.20;;
44670;SDS011;48397;53.016;-2.260;2022-09-09T08:22:31;75.57;;;25.38;;
44670;SDS011;48397;53.016;-2.260;2022-09-09T08:27:27;62.45;;;21.40;;
44670;SDS011;48397;53.016;-2.260;2022-09-09T08:29:55;67.35;;;22.08;;
44670;SDS011;48397;53.016;-2.260;2022-09-09T08:32:23;71.85;;;24.17;;
44670;SDS011;48397;53.016;-2.260;2022-09-09T08:34:51;65.40;;;19.55;;
44670;SDS011;48397;53.016;-2.260;2022-09-09T08:37:22;72.47;;;24.67;;
44670;SDS011;48397;53.016;-2.260;2022-09-09T08:39:50;73.88;;;22.65;;
44670;SDS011;48397;53.016;-2.260;2022-09-09T08:50:19;71.70;;;23.00;;
44670;SDS011;48397;53.016;-2.260;2022-09-09T08:55:47;73.43;;;24.13;;
44670;SDS011;48397;53.016;-2.260;2022-09-09T08:58:19;50.33;;;18.25;;
44670;SDS011;48397;53.016;-2.260;2022-09-09T09:04:26;65.65;;;22.70;;
44670;SDS011;48397;53.016;-2.260;2022-09-09T09:07:28;64.82;;;20.88;;
44670;SDS011;48397;53.016;-2.260;2022-09-09T09:13:04;59.05;;;20.23;;
44670;SDS011;48397;53.016;-2.260;2022-09-09T09:15:55;63.13;;;20.70;;
44670;SDS011;48397;53.016;-2.260;2022-09-09T09:18:29;60.00;;;20.95;;
44670;SDS011;48397;53.016;-2.260;2022-09-09T09:23:58;63.17;;;22.27;;
44670;SDS011;48397;53.016;-2.260;2022-09-09T09:26:31;54.05;;;19.73;;
44670;SDS011;48397;53.016;-2.260;2022-09-09T09:29:24;59.08;;;21.80;;
44670;SDS011;48397;53.016;-2.260;2022-09-09T09:31:53;43.72;;;14.13;;
44670;SDS011;48397;53.016;-2.260;2022-09-09T09:34:24;59.30;;;21.98;;
44670;SDS011;48397;53.016;-2.260;2022-09-09T09:36:59;57.83;;;20.33;;
44670;SDS011;48397;53.016;-2.260;2022-09-09T09:39:33;48.72;;;18.58;;
44670;SDS011;48397;53.016;-2.260;2022-09-09T09:42:25;47.88;;;15.50;;
44670;SDS011;48397;53.016;-2.260;2022-09-09T09:44:56;50.30;;;18.83;;
44670;SDS011;48397;53.016;-2.260;2022-09-09T09:47:34;44.67;;;15.35;;
44670;SDS011;48397;53.016;-2.260;2022-09-09T09:50:18;45.13;;;17.30;;
44670;SDS011;48397;53.016;-2.260;2022-09-09T09:52:54;53.38;;;20.20;;
44670;SDS011;48397;53.016;-2.260;2022-09-09T09:55:25;54.50;;;19.92;;
44670;SDS011;48397;53.016;-2.260;2022-09-09T09:58:01;46.85;;;17.98;;
44670;SDS011;48397;53.016;-2.260;2022-09-09T10:00:32;40.88;;;15.27;;
44670;SDS011;48397;53.016;-2.260;2022-09-09T10:03:19;53.03;;;18.98;;
44670;SDS011;48397;53.016;-2.260;2022-09-09T10:05:58;42.10;;;15.75;;
44670;SDS011;48397;53.016;-2.260;2022-09-09T10:08:26;60.95;;;20.42;;
44670;SDS011;48397;53.016;-2.260;2022-09-09T10:19:16;62.40;;;21.77;;
44670;SDS011;48397;53.016;-2.260;2022-09-09T10:30:37;59.78;;;20.98;;
44670;SDS011;48397;53.016;-2.260;2022-09-09T10:32:46;43.00;;;14.65;;
44670;SDS011;48397;53.016;-2.260;2022-09-09T10:40:42;33.03;;;12.48;;
44670;SDS011;48397;53.016;-2.260;2022-09-09T10:43:25;51.92;;;17.48;;
44670;SDS011;48397;53.016;-2.260;2022-09-09T10:46:13;44.55;;;13.05;;
44670;SDS011;48397;53.016;-2.260;2022-09-09T10:51:36;33.10;;;11.07;;
44670;SDS011;48397;53.016;-2.260;2022-09-09T10:57:20;26.17;;;9.88;;
44670;SDS011;48397;53.016;-2.260;2022-09-09T10:59:57;29.17;;;11.95;;
44670;SDS011;48397;53.016;-2.260;2022-09-09T11:02:32;32.38;;;10.85;;
44670;SDS011;48397;53.016;-2.260;2022-09-09T11:05:03;34.08;;;12.65;;
44670;SDS011;48397;53.016;-2.260;2022-09-09T11:13:53;31.40;;;11.88;;
44670;SDS011;48397;53.016;-2.260;2022-09-09T11:16:24;41.42;;;12.18;;
44670;SDS011;48397;53.016;-2.260;2022-09-09T11:21:52;36.47;;;12.75;;
44670;SDS011;48397;53.016;-2.260;2022-09-09T11:24:41;28.67;;;10.43;;
44670;SDS011;48397;53.016;-2.260;2022-09-09T11:27:21;27.90;;;11.50;;
44670;SDS011;48397;53.016;-2.260;2022-09-09T11:39:11;42.08;;;15.15;;
44670;SDS011;48397;53.016;-2.260;2022-09-09T11:42:12;37.08;;;14.80;;
44670;SDS011;48397;53.016;-2.260;2022-09-09T11:44:47;23.45;;;8.85;;
44670;SDS011;48397;53.016;-2.260;2022-09-09T11:47:23;27.85;;;10.60;;
44670;SDS011;48397;53.016;-2.260;2022-09-09T11:52:44;23.42;;;9.05;;
44670;SDS011;48397;53.016;-2.260;2022-09-09T11:55:26;34.85;;;13.55;;
44670;SDS011;48397;53.016;-2.260;2022-09-09T11:58:01;39.05;;;14.93;;
44670;SDS011;48397;53.016;-2.260;2022-09-09T12:03:04;34.80;;;13.23;;
44670;SDS011;48397;53.016;-2.260;2022-09-09T12:05:36;51.25;;;19.08;;
44670;SDS011;48397;53.016;-2.260;2022-09-09T12:08:09;37.13;;;13.77;;
44670;SDS011;48397;53.016;-2.260;2022-09-09T12:10:52;23.48;;;9.48;;
44670;SDS011;48397;53.016;-2.260;2022-09-09T12:13:23;30.38;;;11.13;;
44670;SDS011;48397;53.016;-2.260;2022-09-09T12:15:54;22.23;;;9.40;;
44670;SDS011;48397;53.016;-2.260;2022-09-09T12:18:35;23.58;;;8.60;;
44670;SDS011;48397;53.016;-2.260;2022-09-09T12:21:14;25.02;;;9.57;;
44670;SDS011;48397;53.016;-2.260;2022-09-09T12:23:52;22.98;;;10.30;;
44670;SDS011;48397;53.016;-2.260;2022-09-09T12:29:25;21.90;;;8.45;;
44670;SDS011;48397;53.016;-2.260;2022-09-09T12:32:15;23.00;;;7.97;;
44670;SDS011;48397;53.016;-2.260;2022-09-09T12:34:56;19.73;;;8.70;;
44670;SDS011;48397;53.016;-2.260;2022-09-09T12:37:45;12.70;;;6.22;;
44670;SDS011;48397;53.016;-2.260;2022-09-09T12:40:29;19.65;;;7.93;;
44670;SDS011;48397;53.016;-2.260;2022-09-09T12:42:59;30.02;;;11.32;;
44670;SDS011;48397;53.016;-2.260;2022-09-09T12:45:28;30.27;;;13.02;;
44670;SDS011;48397;53.016;-2.260;2022-09-09T12:48:00;47.83;;;19.45;;
44670;SDS011;48397;53.016;-2.260;2022-09-09T12:50:34;46.03;;;21.23;;
44670;SDS011;48397;53.016;-2.260;2022-09-09T12:53:08;43.38;;;16.75;;
44670;SDS011;48397;53.016;-2.260;2022-09-09T12:55:49;31.40;;;14.52;;
44670;SDS011;48397;53.016;-2.260;2022-09-09T12:58:24;23.88;;;10.75;;
44670;SDS011;48397;53.016;-2.260;2022-09-09T13:00:53;23.25;;;9.38;;
44670;SDS011;48397;53.016;-2.260;2022-09-09T13:03:25;23.55;;;12.80;;
44670;SDS011;48397;53.016;-2.260;2022-09-09T13:05:53;33.72;;;14.52;;
44670;SDS011;48397;53.016;-2.260;2022-09-09T13:08:27;28.45;;;11.52;;
44670;SDS011;48397;53.016;-2.260;2022-09-09T13:10:57;23.60;;;10.68;;
44670;SDS011;48397;53.016;-2.260;2022-09-09T13:13:34;11.40;;;4.82;;
44670;SDS011;48397;53.016;-2.260;2022-09-09T13:16:05;15.68;;;5.93;;
44670;SDS011;48397;53.016;-2.260;2022-09-09T13:18:45;10.68;;;4.15;;
44670;SDS011;48397;53.016;-2.260;2022-09-09T13:21:13;14.43;;;5.70;;
44670;SDS011;48397;53.016;-2.260;2022-09-09T13:23:41;21.15;;;8.80;;
44670;SDS011;48397;53.016;-2.260;2022-09-09T13:26:20;17.63;;;6.97;;
44670;SDS011;48397;53.016;-2.260;2022-09-09T13:28:51;29.08;;;10.15;;
44670;SDS011;48397;53.016;-2.260;2022-09-09T13:31:21;22.92;;;10.15;;
44670;SDS011;48397;53.016;-2.260;2022-09-09T13:33:57;18.67;;;8.73;;
44670;SDS011;48397;53.016;-2.260;2022-09-09T13:38:58;24.48;;;8.52;;
44670;SDS011;48397;53.016;-2.260;2022-09-09T13:41:41;37.72;;;12.75;;
44670;SDS011;48397;53.016;-2.260;2022-09-09T13:44:19;39.22;;;14.07;;
44670;SDS011;48397;53.016;-2.260;2022-09-09T13:47:01;33.28;;;12.05;;
44670;SDS011;48397;53.016;-2.260;2022-09-09T13:49:45;30.42;;;10.35;;
44670;SDS011;48397;53.016;-2.260;2022-09-09T13:52:17;23.50;;;9.60;;
44670;SDS011;48397;53.016;-2.260;2022-09-09T13:54:50;30.40;;;12.52;;
44670;SDS011;48397;53.016;-2.260;2022-09-09T13:57:22;29.75;;;11.88;;
44670;SDS011;48397;53.016;-2.260;2022-09-09T13:59:53;34.17;;;13.77;;
44670;SDS011;48397;53.016;-2.260;2022-09-09T14:02:37;31.08;;;11.32;;
44670;SDS011;48397;53.016;-2.260;2022-09-09T14:05:06;21.90;;;10.10;;
44670;SDS011;48397;53.016;-2.260;2022-09-09T14:10:02;25.67;;;8.40;;
44670;SDS011;48397;53.016;-2.260;2022-09-09T14:12:29;26.95;;;11.93;;
44670;SDS011;48397;53.016;-2.260;2022-09-09T14:14:57;24.17;;;11.15;;
44670;SDS011;48397;53.016;-2.260;2022-09-09T14:17:26;29.90;;;12.20;;
44670;SDS011;48397;53.016;-2.260;2022-09-09T14:19:57;28.55;;;10.05;;
44670;SDS011;48397;53.016;-2.260;2022-09-09T14:22:25;25.33;;;8.70;;
44670;SDS011;48397;53.016;-2.260;2022-09-09T14:24:53;15.02;;;6.50;;
44670;SDS011;48397;53.016;-2.260;2022-09-09T14:27:20;22.98;;;8.70;;
44670;SDS011;48397;53.016;-2.260;2022-09-09T14:29:48;24.98;;;9.25;;
44670;SDS011;48397;53.016;-2.260;2022-09-09T14:32:16;19.52;;;7.28;;
44670;SDS011;48397;53.016;-2.260;2022-09-09T14:34:44;17.88;;;6.47;;
44670;SDS011;48397;53.016;-2.260;2022-09-09T14:37:11;14.27;;;6.82;;
44670;SDS011;48397;53.016;-2.260;2022-09-09T14:39:39;18.58;;;7.20;;
44670;SDS011;48397;53.016;-2.260;2022-09-09T14:42:06;15.02;;;7.47;;
44670;SDS011;48397;53.016;-2.260;2022-09-09T14:44:35;14.05;;;6.80;;
44670;SDS011;48397;53.016;-2.260;2022-09-09T14:47:08;26.10;;;7.30;;
44670;SDS011;48397;53.016;-2.260;2022-09-09T14:49:35;17.05;;;6.80;;
44670;SDS011;48397;53.016;-2.260;2022-09-09T14:52:06;14.32;;;5.68;;
44670;SDS011;48397;53.016;-2.260;2022-09-09T14:54:36;12.88;;;5.88;;
44670;SDS011;48397;53.016;-2.260;2022-09-09T14:57:03;20.30;;;6.03;;
44670;SDS011;48397;53.016;-2.260;2022-09-09T14:59:31;12.68;;;5.32;;
44670;SDS011;48397;53.016;-2.260;2022-09-09T15:01:59;15.10;;;5.93;;
44670;SDS011;48397;53.016;-2.260;2022-09-09T15:04:31;10.45;;;4.97;;
44670;SDS011;48397;53.016;-2.260;2022-09-09T15:06:59;15.23;;;6.03;;
44670;SDS011;48397;53.016;-2.260;2022-09-09T15:09:26;15.52;;;5.13;;
44670;SDS011;48397;53.016;-2.260;2022-09-09T15:11:55;17.35;;;6.53;;
44670;SDS011;48397;53.016;-2.260;2022-09-09T15:14:23;16.25;;;5.80;;
44670;SDS011;48397;53.016;-2.260;2022-09-09T15:16:52;9.80;;;4.20;;
44670;SDS011;48397;53.016;-2.260;2022-09-09T15:19:19;16.52;;;6.63;;
44670;SDS011;48397;53.016;-2.260;2022-09-09T15:24:15;12.50;;;4.55;;
44670;SDS011;48397;53.016;-2.260;2022-09-09T15:26:43;13.98;;;5.28;;
44670;SDS011;48397;53.016;-2.260;2022-09-09T15:29:11;12.40;;;4.35;;
44670;SDS011;48397;53.016;-2.260;2022-09-09T15:31:39;15.18;;;6.10;;
44670;SDS011;48397;53.016;-2.260;2022-09-09T15:34:07;19.08;;;7.32;;
44670;SDS011;48397;53.016;-2.260;2022-09-09T15:36:36;20.33;;;7.53;;
44670;SDS011;48397;53.016;-2.260;2022-09-09T15:39:06;17.90;;;7.63;;
44670;SDS011;48397;53.016;-2.260;2022-09-09T15:41:39;19.13;;;7.05;;
44670;SDS011;48397;53.016;-2.260;2022-09-09T15:44:07;18.15;;;8.45;;
44670;SDS011;48397;53.016;-2.260;2022-09-09T15:46:38;16.17;;;7.38;;
44670;SDS011;48397;53.016;-2.260;2022-09-09T15:49:19;18.02;;;7.45;;
44670;SDS011;48397;53.016;-2.260;2022-09-09T15:51:58;22.15;;;9.45;;
44670;SDS011;48397;53.016;-2.260;2022-09-09T15:54:33;24.65;;;9.38;;
44670;SDS011;48397;53.016;-2.260;2022-09-09T15:57:03;18.98;;;9.63;;
44670;SDS011;48397;53.016;-2.260;2022-09-09T15:59:31;22.00;;;8.75;;
44670;SDS011;48397;53.016;-2.260;2022-09-09T16:02:01;19.48;;;6.90;;
44670;SDS011;48397;53.016;-2.260;2022-09-09T16:04:29;22.05;;;7.57;;
44670;SDS011;48397;53.016;-2.260;2022-09-09T16:06:58;9.40;;;2.83;;
44670;SDS011;48397;53.016;-2.260;2022-09-09T16:09:27;5.13;;;2.33;;
44670;SDS011;48397;53.016;-2.260;2022-09-09T16:12:00;5.57;;;1.50;;
44670;SDS011;48397;53.016;-2.260;2022-09-09T16:14:29;8.52;;;1.65;;
44670;SDS011;48397;53.016;-2.260;2022-09-09T16:17:02;8.00;;;1.70;;
44670;SDS011;48397;53.016;-2.260;2022-09-09T16:19:34;6.03;;;1.92;;
44670;SDS011;48397;53.016;-2.260;2022-09-09T16:22:02;4.45;;;2.03;;
44670;SDS011;48397;53.016;-2.260;2022-09-09T16:24:31;8.32;;;1.35;;
44670;SDS011;48397;53.016;-2.260;2022-09-09T16:27:01;7.07;;;1.45;;
44670;SDS011;48397;53.016;-2.260;2022-09-09T16:29:29;2.45;;;1.60;;
44670;SDS011;48397;53.016;-2.260;2022-09-09T16:34:30;5.45;;;1.98;;
44670;SDS011;48397;53.016;-2.260;2022-09-09T16:36:57;15.98;;;2.50;;
44670;SDS011;48397;53.016;-2.260;2022-09-09T16:39:25;6.03;;;2.25;;
44670;SDS011;48397;53.016;-2.260;2022-09-09T16:41:53;2.78;;;1.63;;
44670;SDS011;48397;53.016;-2.260;2022-09-09T16:44:21;6.80;;;2.90;;
44670;SDS011;48397;53.016;-2.260;2022-09-09T16:46:49;9.90;;;2.55;;
44670;SDS011;48397;53.016;-2.260;2022-09-09T16:49:26;11.63;;;2.10;;
44670;SDS011;48397;53.016;-2.260;2022-09-09T16:51:57;8.05;;;2.05;;
44670;SDS011;48397;53.016;-2.260;2022-09-09T16:54:25;7.82;;;2.97;;
44670;SDS011;48397;53.016;-2.260;2022-09-09T16:56:54;10.80;;;3.30;;
44670;SDS011;48397;53.016;-2.260;2022-09-09T16:59:22;6.28;;;3.20;;
44670;SDS011;48397;53.016;-2.260;2022-09-09T17:01:50;9.40;;;2.65;;
44670;SDS011;48397;53.016;-2.260;2022-09-09T17:04:20;6.38;;;2.70;;
44670;SDS011;48397;53.016;-2.260;2022-09-09T17:06:52;6.30;;;2.78;;
44670;SDS011;48397;53.016;-2.260;2022-09-09T17:09:21;10.35;;;2.92;;
44670;SDS011;48397;53.016;-2.260;2022-09-09T17:11:50;7.22;;;2.58;;
44670;SDS011;48397;53.016;-2.260;2022-09-09T17:14:20;8.68;;;3.30;;
44670;SDS011;48397;53.016;-2.260;2022-09-09T17:16:49;7.38;;;3.20;;
44670;SDS011;48397;53.016;-2.260;2022-09-09T17:19:17;12.18;;;3.60;;
44670;SDS011;48397;53.016;-2.260;2022-09-09T17:21:45;7.63;;;3.45;;
44670;SDS011;48397;53.016;-2.260;2022-09-09T17:24:34;13.32;;;2.90;;
44670;SDS011;48397;53.016;-2.260;2022-09-09T17:27:05;7.38;;;3.38;;
44670;SDS011;48397;53.016;-2.260;2022-09-09T17:29:33;8.75;;;3.38;;
44670;SDS011;48397;53.016;-2.260;2022-09-09T17:32:03;12.02;;;3.88;;